Time;durP1;ratioP1;P1;durP2;ratioP2;P2;SDS_P1;SDS_P2;PMS_P1;PMS_P2;Temp;Humidity;BMP_temperature;BMP_pressure;BME280_temperature;BME280_humidity;BME280_pressure;Samples;Min_cycle;Max_cycle;Signal;HPM_P1;HPM_P2
2021/05/09 00:01:00;;;;;;;8.90;3.47;;;;;;;23.66;15.79;98545.72;5038604;28;20079;-88
2021/05/09 00:03:26;;;;;;;5.95;2.85;;;;;;;23.56;16.00;98541.03;5042237;28;20070;-88
2021/05/09 00:05:53;;;;;;;7.03;3.30;;;;;;;23.44;16.02;98550.00;5050584;28;20044;-88
2021/05/09 00:08:19;;;;;;;5.47;2.60;;;;;;;23.43;16.11;98542.00;5046950;28;20032;-87
2021/05/09 00:10:45;;;;;;;6.95;2.60;;;;;;;23.52;16.12;98542.28;5053735;28;20033;-89
2021/05/09 00:13:11;;;;;;;7.25;3.20;;;;;;;23.69;15.82;98544.88;5047766;28;20497;-89
2021/05/09 00:15:37;;;;;;;6.13;2.88;;;;;;;23.99;15.89;98544.09;5043430;28;20045;-88
2021/05/09 00:18:05;;;;;;;7.30;3.13;;;;;;;24.09;15.50;98543.13;5044594;28;20112;-88
2021/05/09 00:20:31;;;;;;;6.72;2.88;;;;;;;23.88;15.83;98549.03;5054249;28;20368;-88
2021/05/09 00:22:58;;;;;;;5.78;2.55;;;;;;;23.92;15.63;98549.78;5040830;28;20040;-88
2021/05/09 00:25:24;;;;;;;4.30;2.03;;;;;;;24.20;15.53;98540.97;5050369;28;20049;-88
2021/05/09 00:27:50;;;;;;;6.78;2.58;;;;;;;24.44;15.17;98530.56;5051072;28;20040;-88
2021/05/09 00:30:19;;;;;;;7.57;2.72;;;;;;;24.48;15.21;98539.75;5048288;28;20564;-88
2021/05/09 00:32:45;;;;;;;7.88;3.28;;;;;;;24.42;15.37;98538.63;5046860;28;20037;-87
2021/05/09 00:35:12;;;;;;;7.60;3.22;;;;;;;23.91;15.68;98543.38;5044418;28;20052;-88
2021/05/09 00:37:38;;;;;;;7.15;2.75;;;;;;;23.68;16.34;98534.09;5049683;28;20059;-88
2021/05/09 00:40:06;;;;;;;4.60;2.53;;;;;;;23.61;15.95;98543.38;5036940;28;20605;-87
2021/05/09 00:42:32;;;;;;;7.20;2.47;;;;;;;23.54;15.98;98539.88;5041243;28;20065;-87
2021/05/09 00:44:58;;;;;;;5.50;2.50;;;;;;;23.81;15.68;98535.91;5051913;28;20033;-88
2021/05/09 00:47:24;;;;;;;4.80;2.25;;;;;;;23.69;15.89;98542.06;5044180;28;20065;-88
2021/05/09 00:49:50;;;;;;;5.60;2.60;;;;;;;23.83;15.67;98536.25;5045159;28;20025;-88
2021/05/09 00:52:17;;;;;;;4.70;2.38;;;;;;;23.67;15.65;98532.47;5039446;28;20111;-87
2021/05/09 00:54:55;;;;;;;4.45;1.98;;;;;;;23.63;15.81;98538.16;5044522;28;20025;-87
2021/05/09 00:57:23;;;;;;;6.72;2.50;;;;;;;23.34;16.06;98537.69;5051286;28;20033;-87
2021/05/09 00:59:52;;;;;;;3.20;2.40;;;;;;;22.90;16.43;98539.75;5051461;28;20068;-87
2021/05/09 01:02:19;;;;;;;5.95;3.05;;;;;;;22.97;16.21;98537.66;5039863;28;20116;-87
2021/05/09 01:04:46;;;;;;;6.78;2.40;;;;;;;23.11;16.34;98536.72;5040533;28;20030;-87
2021/05/09 01:07:13;;;;;;;4.63;1.92;;;;;;;23.36;15.86;98535.25;5044869;28;20040;-87
2021/05/09 01:09:40;;;;;;;5.25;2.20;;;;;;;23.21;16.20;98533.81;5036854;28;20539;-87
2021/05/09 01:12:13;;;;;;;4.88;1.73;;;;;;;23.33;15.99;98530.47;5042249;28;20034;-87
2021/05/09 01:14:40;;;;;;;5.05;2.30;;;;;;;23.51;15.95;98526.69;5043246;28;20041;-87
2021/05/09 01:17:07;;;;;;;3.70;2.10;;;;;;;23.51;16.02;98519.06;5042157;28;20083;-87
2021/05/09 01:19:34;;;;;;;6.38;2.20;;;;;;;23.57;15.81;98520.19;5040871;28;20395;-87
2021/05/09 01:22:00;;;;;;;3.95;1.90;;;;;;;23.19;16.00;98515.84;5039611;28;20034;-88
2021/05/09 01:24:26;;;;;;;6.47;2.10;;;;;;;23.15;16.07;98524.25;5047511;28;20033;-88
2021/05/09 01:26:52;;;;;;;3.25;1.77;;;;;;;23.01;16.16;98529.25;5038487;28;20394;-88
2021/05/09 01:29:18;;;;;;;5.88;2.10;;;;;;;23.17;16.09;98521.06;5042007;28;20486;-88
2021/05/09 01:31:46;;;;;;;3.90;1.83;;;;;;;23.51;15.98;98519.06;5039646;28;20038;-89
2021/05/09 01:34:12;;;;;;;3.10;1.92;;;;;;;23.47;15.94;98517.53;5043627;28;20040;-88
2021/05/09 01:36:39;;;;;;;2.28;1.65;;;;;;;23.27;15.97;98511.72;5046593;28;20562;-88
2021/05/09 01:39:06;;;;;;;3.88;1.88;;;;;;;23.61;15.61;98522.97;5047014;28;20433;-88
2021/05/09 01:41:33;;;;;;;5.10;2.00;;;;;;;23.81;15.70;98516.25;5043705;28;20037;-88
2021/05/09 01:43:59;;;;;;;2.13;1.27;;;;;;;23.77;15.65;98509.91;5041682;28;20034;-88
2021/05/09 01:46:25;;;;;;;3.20;1.33;;;;;;;24.05;15.46;98517.94;5041291;28;20045;-88
2021/05/09 01:48:52;;;;;;;2.88;1.52;;;;;;;23.75;15.62;98512.34;5046353;28;20037;-88
2021/05/09 01:51:18;;;;;;;2.45;1.00;;;;;;;23.38;15.95;98514.44;5048586;28;20039;-87
2021/05/09 01:53:45;;;;;;;2.13;1.63;;;;;;;23.26;16.00;98510.97;5039191;28;20033;-87
2021/05/09 01:56:11;;;;;;;3.42;1.83;;;;;;;23.57;15.69;98511.78;5039665;28;20029;-87
2021/05/09 01:58:37;;;;;;;4.22;1.33;;;;;;;23.98;15.39;98520.84;5037046;28;20433;-88
2021/05/09 02:01:04;;;;;;;2.03;1.15;;;;;;;24.07;15.32;98509.09;5041081;28;20030;-88
2021/05/09 02:03:30;;;;;;;2.33;1.48;;;;;;;23.84;15.60;98515.44;5044220;28;20061;-88
2021/05/09 02:05:56;;;;;;;2.47;1.30;;;;;;;24.18;15.47;98514.56;5027930;28;20029;-87
2021/05/09 02:08:22;;;;;;;3.83;1.63;;;;;;;24.04;15.20;98521.94;5044427;28;20535;-88
2021/05/09 02:10:48;;;;;;;2.33;1.17;;;;;;;24.09;15.22;98511.47;5039103;28;20037;-88
2021/05/09 02:13:14;;;;;;;3.42;1.92;;;;;;;23.82;15.54;98506.66;5040886;28;20037;-87
2021/05/09 02:15:41;;;;;;;5.43;1.75;;;;;;;23.95;15.52;98504.84;5044029;28;20514;-87
2021/05/09 02:18:07;;;;;;;2.97;1.13;;;;;;;23.84;15.64;98509.03;5038480;28;20029;-87
2021/05/09 02:20:33;;;;;;;1.92;1.30;;;;;;;;;;5043705;28;20037;-87
2021/05/09 02:22:59;;;;;;;1.48;1.20;;;;;;;24.11;15.44;98506.28;5041894;28;20033;-88
2021/05/09 02:25:25;;;;;;;2.90;1.15;;;;;;;24.26;15.22;98496.41;5043313;28;20039;-88
2021/05/09 02:27:51;;;;;;;2.75;1.30;;;;;;;24.51;15.08;98500.38;5044195;28;20068;-88
2021/05/09 02:30:17;;;;;;;5.15;1.30;;;;;;;24.48;15.09;98497.66;5041146;28;20033;-88
2021/05/09 02:32:43;;;;;;;2.22;1.23;;;;;;;24.35;15.28;98493.84;5041155;28;20033;-88
2021/05/09 02:35:09;;;;;;;2.28;1.35;;;;;;;24.13;15.33;98490.59;5043608;28;20035;-88
2021/05/09 02:37:36;;;;;;;2.15;1.50;;;;;;;23.93;15.69;98500.88;5049140;28;20029;-88
2021/05/09 02:40:03;;;;;;;2.17;1.20;;;;;;;23.73;16.05;98500.78;5048843;28;20048;-87
2021/05/09 02:42:29;;;;;;;1.95;1.08;;;;;;;23.60;15.93;98494.13;5047195;28;20553;-87
2021/05/09 02:44:55;;;;;;;2.13;1.00;;;;;;;23.24;16.48;98495.78;5048699;28;20041;-88
2021/05/09 02:47:28;;;;;;;2.28;1.25;;;;;;;23.44;16.44;98493.94;5041671;28;20055;-87
2021/05/09 02:49:58;;;;;;;3.05;1.20;;;;;;;23.06;16.67;98492.34;5045225;28;20438;-87
2021/05/09 02:52:24;;;;;;;3.08;1.42;;;;;;;23.22;16.56;98487.75;5040056;28;20498;-88
2021/05/09 02:54:51;;;;;;;1.23;0.98;;;;;;;23.92;15.97;98491.66;5049014;28;20104;-89
2021/05/09 02:57:18;;;;;;;3.60;1.58;;;;;;;24.04;15.78;98493.09;5036472;28;20394;-89
2021/05/09 02:59:44;;;;;;;2.10;1.05;;;;;;;23.50;16.30;98489.44;5041837;28;20390;-88
2021/05/09 03:02:10;;;;;;;2.40;0.85;;;;;;;23.10;16.98;98490.34;5043247;28;20436;-89
2021/05/09 03:04:36;;;;;;;1.20;1.10;;;;;;;23.11;16.72;98497.50;5047896;28;20049;-89
2021/05/09 03:07:03;;;;;;;2.50;1.20;;;;;;;23.49;16.74;98495.47;5041120;28;20109;-89
2021/05/09 03:09:29;;;;;;;1.10;0.80;;;;;;;23.32;16.64;98498.06;5040742;28;20107;-89
2021/05/09 03:11:55;;;;;;;1.10;0.90;;;;;;;22.80;16.89;98499.44;5044500;28;20393;-89
2021/05/09 03:14:21;;;;;;;2.35;1.13;;;;;;;22.59;17.33;98506.00;5047795;28;20087;-89
2021/05/09 03:16:47;;;;;;;1.85;1.13;;;;;;;22.77;17.38;98511.47;5044552;28;20028;-89
2021/05/09 03:19:13;;;;;;;2.28;1.23;;;;;;;23.18;16.97;98505.84;5052432;28;20107;-88
2021/05/09 03:21:41;;;;;;;2.15;1.30;;;;;;;23.99;16.10;98494.34;5047315;28;20071;-88
2021/05/09 03:24:11;;;;;;;3.00;1.02;;;;;;;24.42;15.72;98505.75;5042259;28;20036;-88
2021/05/09 03:26:37;;;;;;;1.33;0.90;;;;;;;24.28;15.82;98500.38;5049819;28;20538;-88
2021/05/09 03:29:05;;;;;;;1.67;0.90;;;;;;;23.74;16.23;98509.97;5052100;28;20409;-88
2021/05/09 03:31:31;;;;;;;1.40;0.82;;;;;;;23.45;16.64;98508.75;5045856;28;20044;-88
2021/05/09 03:33:57;;;;;;;2.08;1.05;;;;;;;23.84;16.29;98515.44;5050245;28;20063;-88
2021/05/09 03:36:23;;;;;;;1.45;0.80;;;;;;;22.89;17.19;98521.38;5043957;28;20040;-88
2021/05/09 03:38:50;;;;;;;1.90;0.85;;;;;;;22.95;17.43;98526.09;5049111;28;20045;-88
2021/05/09 03:41:16;;;;;;;1.50;1.10;;;;;;;23.73;16.60;98528.00;5046305;28;20044;-88
2021/05/09 03:43:43;;;;;;;3.15;1.00;;;;;;;24.33;16.20;98519.53;5052575;28;20056;-88
2021/05/09 03:46:09;;;;;;;1.35;0.95;;;;;;;24.15;15.98;98524.63;5049325;28;20041;-88
2021/05/09 03:48:35;;;;;;;2.30;0.80;;;;;;;24.27;15.91;98517.63;5042255;28;20049;-87
2021/05/09 03:51:02;;;;;;;2.03;0.65;;;;;;;23.89;16.16;98525.38;5053726;28;20478;-87
2021/05/09 03:53:30;;;;;;;1.27;0.80;;;;;;;23.64;16.66;98528.50;5050891;28;20120;-87
2021/05/09 03:55:59;;;;;;;1.38;0.70;;;;;;;24.01;16.08;98530.41;5046815;28;20052;-87
2021/05/09 03:58:25;;;;;;;1.92;0.80;;;;;;;24.02;15.94;98532.78;5053323;28;20036;-88
2021/05/09 04:00:51;;;;;;;2.10;1.27;;;;;;;24.44;15.72;98527.75;5045427;28;20463;-88
2021/05/09 04:03:26;;;;;;;2.50;0.90;;;;;;;24.26;15.75;98530.88;5048521;28;20252;-88
2021/05/09 04:05:54;;;;;;;1.60;0.90;;;;;;;24.04;16.20;98537.97;5047763;28;20021;-88
2021/05/09 04:08:21;;;;;;;1.42;0.93;;;;;;;24.31;15.72;98526.78;5052931;28;20045;-88
2021/05/09 04:10:49;;;;;;;1.90;1.02;;;;;;;24.62;15.51;98520.63;5042928;28;20788;-88
2021/05/09 04:13:15;;;;;;;1.63;0.65;;;;;;;24.78;15.86;98524.81;5048898;28;20102;-88
2021/05/09 04:15:41;;;;;;;0.80;0.80;;;;;;;25.16;15.06;98523.28;5046368;28;20538;-88
2021/05/09 04:18:08;;;;;;;1.42;0.98;;;;;;;25.34;15.16;98526.56;5036161;28;20413;-88
2021/05/09 04:20:34;;;;;;;1.45;0.90;;;;;;;25.60;14.88;98527.69;5045146;28;20436;-89
2021/05/09 04:23:18;;;;;;;1.50;0.80;;;;;;;25.51;15.31;98527.47;5041742;28;20063;-89
2021/05/09 04:25:50;;;;;;;1.63;0.80;;;;;;;25.36;15.23;98529.75;5047044;28;20112;-89
2021/05/09 04:28:17;;;;;;;1.17;0.68;;;;;;;25.11;15.27;98529.44;5044238;28;20513;-89
2021/05/09 04:30:43;;;;;;;1.27;0.80;;;;;;;25.67;16.03;98533.16;5042672;28;20102;-88
2021/05/09 04:33:10;;;;;;;0.90;0.75;;;;;;;25.80;15.93;98531.25;5042626;28;20563;-89
2021/05/09 04:35:39;;;;;;;1.08;0.70;;;;;;;26.23;15.63;98531.13;5047864;28;20043;-89
2021/05/09 04:38:05;;;;;;;1.23;0.60;;;;;;;26.94;15.25;98530.97;5038932;28;20115;-88
2021/05/09 04:40:32;;;;;;;0.70;0.60;;;;;;;27.04;15.37;98526.28;5042546;28;20087;-88
2021/05/09 04:43:09;;;;;;;4.63;0.90;;;;;;;27.60;15.35;98524.72;5047055;28;20040;-88
2021/05/09 04:45:36;;;;;;;1.13;0.73;;;;;;;27.63;14.67;98526.66;5038777;28;20045;-87
2021/05/09 04:48:03;;;;;;;1.08;0.60;;;;;;;27.74;14.95;98526.31;5044502;28;20040;-87
2021/05/09 04:50:30;;;;;;;1.17;0.80;;;;;;;27.80;14.56;98521.69;5046406;28;20064;-87
2021/05/09 04:52:56;;;;;;;1.33;0.65;;;;;;;27.55;14.30;98518.81;5051757;28;20386;-88
2021/05/09 04:55:23;;;;;;;2.55;0.88;;;;;;;27.92;14.48;98524.53;5040303;28;20374;-88
2021/05/09 04:57:49;;;;;;;1.00;0.77;;;;;;;28.04;13.85;98532.28;5040315;28;20036;-88
2021/05/09 05:00:16;;;;;;;0.90;0.63;;;;;;;28.23;14.22;98535.31;5047623;28;20048;-88
2021/05/09 05:02:43;;;;;;;2.17;0.90;;;;;;;28.08;14.14;98534.97;5042370;28;20390;-88
2021/05/09 05:05:14;;;;;;;1.25;0.60;;;;;;;28.06;14.28;98526.16;5043514;28;20134;-88
2021/05/09 05:07:40;;;;;;;0.63;0.55;;;;;;;28.74;14.39;98529.22;5043535;28;20109;-89
2021/05/09 05:10:07;;;;;;;0.93;0.60;;;;;;;29.12;13.81;98531.94;5049909;28;20040;-88
2021/05/09 05:12:33;;;;;;;0.60;0.57;;;;;;;29.63;13.96;98520.41;5044656;28;20478;-89
2021/05/09 05:14:59;;;;;;;0.60;0.60;;;;;;;29.84;13.29;98511.13;5048554;28;20051;-89
2021/05/09 05:17:25;;;;;;;0.80;0.50;;;;;;;30.26;13.09;98522.84;5043086;28;20063;-89
2021/05/09 05:19:51;;;;;;;0.68;0.63;;;;;;;29.80;13.57;98521.81;5038993;28;20116;-90
2021/05/09 05:22:17;;;;;;;0.95;0.50;;;;;;;30.08;13.25;98523.56;5044632;28;20538;-89
2021/05/09 05:24:43;;;;;;;0.82;0.60;;;;;;;30.32;13.32;98521.75;5025582;28;20033;-89
2021/05/09 05:27:10;;;;;;;0.68;0.47;;;;;;;30.30;13.54;98514.97;5048409;28;20101;-90
2021/05/09 05:29:36;;;;;;;0.73;0.30;;;;;;;30.40;13.00;98513.78;5050673;28;20173;-90
2021/05/09 05:32:02;;;;;;;0.57;0.43;;;;;;;30.52;13.34;98510.06;5049897;28;20032;-90
2021/05/09 05:34:28;;;;;;;0.57;0.50;;;;;;;30.46;13.19;98509.88;5049465;28;20041;-90
2021/05/09 05:36:54;;;;;;;0.65;0.43;;;;;;;30.31;12.90;98496.72;5051296;28;20478;-90
2021/05/09 05:39:20;;;;;;;0.52;0.40;;;;;;;30.59;12.92;98504.09;5046699;28;20156;-90
2021/05/09 05:41:46;;;;;;;0.68;0.55;;;;;;;30.97;13.06;98495.22;5042700;28;20045;-90
2021/05/09 05:44:12;;;;;;;0.52;0.30;;;;;;;31.15;12.75;98495.22;5047936;28;20063;-90
2021/05/09 05:46:38;;;;;;;1.23;0.77;;;;;;;30.70;12.74;98493.88;5046387;28;20651;-88
2021/05/09 05:49:04;;;;;;;0.43;0.43;;;;;;;30.71;13.16;98500.34;5049927;28;20029;-88
2021/05/09 05:51:30;;;;;;;0.52;0.50;;;;;;;30.77;12.66;98495.63;5044254;28;20063;-88
2021/05/09 05:53:57;;;;;;;0.95;0.50;;;;;;;30.61;12.97;98501.56;5039859;28;20060;-88
2021/05/09 05:56:26;;;;;;;0.35;0.35;;;;;;;30.97;12.84;98503.72;5051007;28;20037;-88
2021/05/09 05:58:53;;;;;;;0.55;0.50;;;;;;;31.11;11.83;98500.25;5033734;28;20178;-88
2021/05/09 06:01:19;;;;;;;0.50;0.40;;;;;;;30.98;12.81;98505.28;5040597;28;20042;-88
2021/05/09 06:03:45;;;;;;;2.22;0.43;;;;;;;30.92;12.60;98507.97;5046589;28;20029;-89
2021/05/09 06:06:12;;;;;;;0.45;0.40;;;;;;;31.38;12.26;98506.72;5051097;28;20036;-89
2021/05/09 06:08:39;;;;;;;0.52;0.30;;;;;;;31.40;12.31;98511.91;5049717;28;20032;-89
2021/05/09 06:11:05;;;;;;;0.30;0.30;;;;;;;31.56;12.71;98513.66;5050106;28;20068;-89
2021/05/09 06:13:32;;;;;;;0.40;0.30;;;;;;;31.25;12.60;98517.44;5047954;28;20128;-88
2021/05/09 06:15:58;;;;;;;2.78;0.70;;;;;;;30.92;12.84;98505.13;5046820;28;20494;-89
2021/05/09 06:18:24;;;;;;;0.98;0.50;;;;;;;31.56;13.07;98514.44;5044867;28;20060;-89
2021/05/09 06:20:50;;;;;;;1.23;0.20;;;;;;;31.68;12.27;98510.66;5046693;28;20037;-88
2021/05/09 06:23:22;;;;;;;1.52;0.50;;;;;;;31.36;12.34;98505.63;5052473;28;20033;-89
2021/05/09 06:25:48;;;;;;;0.50;0.43;;;;;;;31.78;12.68;98500.06;5052898;28;20029;-89
2021/05/09 06:28:14;;;;;;;0.55;0.40;;;;;;;31.74;12.08;98500.22;5049527;28;20029;-89
2021/05/09 06:30:43;;;;;;;0.40;0.30;;;;;;;32.27;12.92;98502.59;5037829;28;20121;-91
2021/05/09 06:33:10;;;;;;;0.50;0.40;;;;;;;32.28;12.36;98499.28;5042582;28;20057;-91
2021/05/09 06:35:39;;;;;;;0.28;0.28;;;;;;;32.33;12.46;98495.00;5051781;28;20394;-91
2021/05/09 06:38:07;;;;;;;1.35;0.30;;;;;;;32.37;11.85;98492.78;5050914;28;20382;-91
2021/05/09 06:40:34;;;;;;;0.85;0.38;;;;;;;31.82;12.30;98501.47;5040016;28;20131;-90
2021/05/09 06:43:02;;;;;;;0.22;0.20;;;;;;;31.53;13.15;98492.69;5030446;28;20044;-94
2021/05/09 06:45:31;;;;;;;0.43;0.38;;;;;;;31.75;12.76;98501.00;5038731;28;20045;-91
2021/05/09 06:47:59;;;;;;;0.63;0.38;;;;;;;32.45;12.53;98491.94;5031299;28;20110;-93
2021/05/09 06:50:27;;;;;;;0.30;0.20;;;;;;;33.05;11.96;98482.44;5048899;28;20171;-91
2021/05/09 06:52:53;;;;;;;0.60;0.28;;;;;;;33.01;11.97;98474.09;5045736;28;20547;-92
2021/05/09 06:55:20;;;;;;;1.38;0.22;;;;;;;33.29;11.43;98478.28;5037524;28;20059;-91
2021/05/09 06:57:49;;;;;;;0.77;0.32;;;;;;;32.90;11.92;98479.53;5045608;28;20021;-93
2021/05/09 07:00:17;;;;;;;0.52;0.50;;;;;;;33.14;12.34;98488.84;5039751;28;20110;-91
2021/05/09 07:02:44;;;;;;;0.45;0.40;;;;;;;32.63;11.93;98485.38;5045893;28;20029;-91
2021/05/09 07:05:10;;;;;;;0.45;0.40;;;;;;;32.85;12.52;98483.03;5043757;28;20390;-92
2021/05/09 07:07:49;;;;;;;0.55;0.32;;;;;;;32.75;11.97;98481.50;5043233;28;20040;-89
2021/05/09 07:10:17;;;;;;;0.70;0.40;;;;;;;31.85;12.26;98480.63;5037241;28;20391;-90
2021/05/09 07:12:43;;;;;;;0.35;0.30;;;;;;;32.28;13.13;98481.47;5041853;28;20044;-90
2021/05/09 07:15:11;;;;;;;0.63;0.30;;;;;;;32.74;12.01;98486.41;5044151;28;20734;-91
2021/05/09 07:17:37;;;;;;;0.57;0.30;;;;;;;32.73;11.66;98482.00;5036878;28;20087;-88
2021/05/09 07:20:04;;;;;;;0.43;0.30;;;;;;;33.30;11.96;98462.75;5033491;28;20033;-90
2021/05/09 07:22:39;;;;;;;0.68;0.20;;;;;;;33.53;11.55;98468.91;5049402;28;20037;-88
2021/05/09 07:25:05;;;;;;;0.25;0.20;;;;;;;33.75;11.45;98463.63;5049966;28;20025;-89
2021/05/09 07:27:32;;;;;;;0.30;0.20;;;;;;;33.35;11.67;98464.94;5035835;28;20068;-87
2021/05/09 07:29:58;;;;;;;0.30;0.28;;;;;;;33.56;12.63;98457.31;5035744;28;20509;-86
2021/05/09 07:32:24;;;;;;;0.40;0.32;;;;;;;33.69;11.57;98460.69;5044656;28;20029;-86
2021/05/09 07:34:50;;;;;;;0.28;0.22;;;;;;;33.53;11.74;98451.81;5042229;28;20035;-90
2021/05/09 07:37:17;;;;;;;0.15;0.10;;;;;;;33.93;12.28;98461.34;5045814;28;20025;-89
2021/05/09 07:39:43;;;;;;;1.20;0.40;;;;;;;33.83;10.94;98459.09;5045472;28;20029;-89
2021/05/09 07:42:09;;;;;;;0.47;0.30;;;;;;;33.77;11.08;98466.78;5045286;28;20374;-87
2021/05/09 07:44:35;;;;;;;0.43;0.17;;;;;;;33.92;10.88;98464.69;5048489;28;20033;-88
2021/05/09 07:47:01;;;;;;;0.40;0.30;;;;;;;34.37;11.95;98463.34;5041445;28;20057;-88
2021/05/09 07:49:27;;;;;;;0.17;0.17;;;;;;;34.96;10.51;98469.66;5044332;28;20064;-88
2021/05/09 07:51:53;;;;;;;0.68;0.20;;;;;;;34.97;10.61;98472.00;5058424;28;20029;-88
2021/05/09 07:54:19;;;;;;;0.20;0.20;;;;;;;34.77;10.76;98465.50;5058654;28;20043;-88
2021/05/09 07:56:45;;;;;;;0.20;0.20;;;;;;;33.61;9.86;98458.72;5051287;28;20044;-88
2021/05/09 07:59:11;;;;;;;0.20;0.20;;;;;;;33.96;10.83;98463.19;5053337;28;20079;-88
2021/05/09 08:01:37;;;;;;;0.20;0.20;;;;;;;34.44;10.62;98469.44;5041889;28;20176;-88
2021/05/09 08:04:04;;;;;;;0.57;0.20;;;;;;;34.77;9.72;98463.44;5045802;28;20032;-88
2021/05/09 08:06:30;;;;;;;1.65;0.32;;;;;;;35.04;10.25;98465.88;5046399;28;20040;-88
2021/05/09 08:08:56;;;;;;;0.13;0.13;;;;;;;34.40;10.62;98457.44;5048869;28;20498;-88
2021/05/09 08:11:22;;;;;;;0.20;0.20;;;;;;;34.04;11.60;98453.00;5041340;28;20584;-88
2021/05/09 08:13:48;;;;;;;0.13;0.10;;;;;;;34.02;11.37;98449.06;5053172;28;20518;-89
2021/05/09 08:16:14;;;;;;;0.22;0.10;;;;;;;34.28;11.27;98454.94;5047341;28;20036;-87
2021/05/09 08:18:40;;;;;;;0.20;0.20;;;;;;;34.68;10.90;98452.94;5047350;28;20026;-86
2021/05/09 08:21:06;;;;;;;0.55;0.25;;;;;;;34.85;10.38;98450.31;5041902;28;20383;-86
2021/05/09 08:23:35;;;;;;;0.52;0.20;;;;;;;35.09;10.54;98450.91;5052592;28;20029;-85
2021/05/09 08:26:01;;;;;;;0.20;0.20;;;;;;;34.85;10.42;98453.16;5048597;28;20032;-86
2021/05/09 08:28:27;;;;;;;0.95;0.20;;;;;;;34.25;11.19;98451.00;5040890;28;20104;-87
2021/05/09 08:30:53;;;;;;;0.20;0.20;;;;;;;33.96;10.98;98451.00;5042567;28;20063;-89
2021/05/09 08:33:19;;;;;;;0.10;0.10;;;;;;;34.31;10.80;98448.25;5037519;28;23497;-90
2021/05/09 08:35:45;;;;;;;0.10;0.10;;;;;;;34.48;11.00;98441.50;5050613;28;20560;-89
2021/05/09 08:38:11;;;;;;;0.10;0.10;;;;;;;34.41;10.00;98435.41;5047354;28;20037;-90
2021/05/09 08:40:37;;;;;;;0.28;0.28;;;;;;;34.44;10.70;98429.50;5052391;28;20099;-90
2021/05/09 08:43:03;;;;;;;0.10;0.10;;;;;;;34.57;11.59;98432.81;5051642;28;20039;-90
2021/05/09 08:45:29;;;;;;;0.20;0.10;;;;;;;35.16;11.00;98433.34;5039761;28;20137;-90
2021/05/09 08:47:58;;;;;;;1.17;0.22;;;;;;;35.05;10.57;98432.44;5053437;28;20047;-89
2021/05/09 08:50:26;;;;;;;0.25;0.22;;;;;;;35.00;10.58;98436.75;5042665;28;20029;-89
2021/05/09 08:52:53;;;;;;;0.20;0.20;;;;;;;35.28;9.49;98422.81;5046625;28;20108;-86
2021/05/09 08:55:23;;;;;;;0.30;0.30;;;;;;;35.54;10.31;98429.34;5030458;28;22416;-87
2021/05/09 08:57:50;;;;;;;0.17;0.15;;;;;;;35.63;9.45;98419.81;5042075;28;20025;-86
2021/05/09 09:00:17;;;;;;;0.30;0.15;;;;;;;35.63;10.06;98425.53;5040536;28;20509;-85
2021/05/09 09:02:44;;;;;;;0.73;0.20;;;;;;;35.56;10.41;98431.69;5052603;28;21640;-87
2021/05/09 09:05:12;;;;;;;0.20;0.20;;;;;;;35.50;10.65;98427.97;5035485;28;20029;-86
2021/05/09 09:07:49;;;;;;;0.20;0.20;;;;;;;34.42;10.92;98425.59;5049217;28;20112;-86
2021/05/09 09:10:35;;;;;;;0.30;0.30;;;;;;;33.94;10.68;98425.06;5054592;28;20033;-86
2021/05/09 09:13:03;;;;;;;1.00;0.30;;;;;;;33.75;11.03;98432.28;5048620;28;20504;-84
2021/05/09 09:15:52;;;;;;;0.20;0.20;;;;;;;34.58;11.42;98423.00;5056576;28;20097;-83
2021/05/09 09:18:45;;;;;;;0.20;0.20;;;;;;;34.52;10.21;98424.16;5051047;28;20044;-83
2021/05/09 09:21:26;;;;;;;0.50;0.20;;;;;;;33.36;10.95;98418.13;5034994;28;20036;-87
2021/05/09 09:24:05;;;;;;;0.30;0.22;;;;;;;33.62;11.39;98418.34;5037047;28;20390;-88
2021/05/09 09:26:47;;;;;;;0.20;0.20;;;;;;;34.21;10.32;98415.44;5051484;28;20367;-88
2021/05/09 09:29:28;;;;;;;0.35;0.10;;;;;;;34.82;9.90;98422.00;5055147;28;20115;-85
2021/05/09 09:31:59;;;;;;;0.17;0.17;;;;;;;35.03;9.96;98410.06;5050852;28;20082;-87
2021/05/09 09:34:38;;;;;;;0.20;0.20;;;;;;;35.00;10.72;98415.97;5048704;28;20021;-89
2021/05/09 09:37:07;;;;;;;0.40;0.20;;;;;;;35.23;10.16;98410.06;5046545;28;20064;-88
2021/05/09 09:39:50;;;;;;;0.65;0.20;;;;;;;34.82;10.82;98416.28;5049141;28;20478;-86
2021/05/09 09:42:36;;;;;;;0.32;0.30;;;;;;;33.94;10.80;98416.53;5039728;28;20108;-87
2021/05/09 09:45:25;;;;;;;0.20;0.20;;;;;;;34.56;11.17;98414.16;5040530;28;21035;-88
2021/05/09 09:48:02;;;;;;;0.10;0.10;;;;;;;34.74;10.87;98413.88;5028540;28;20033;-85
2021/05/09 09:50:36;;;;;;;0.20;0.17;;;;;;;35.29;10.54;98408.03;5020063;28;20112;-83
2021/05/09 09:53:21;;;;;;;0.22;0.20;;;;;;;35.80;10.80;98401.50;5044445;28;20036;-83
2021/05/09 09:56:05;;;;;;;2.83;1.10;;;;;;;35.00;10.40;98410.28;5043673;28;20044;-84
2021/05/09 09:58:47;;;;;;;0.20;0.20;;;;;;;35.68;9.96;98401.94;5049569;28;20033;-82
2021/05/09 10:01:20;;;;;;;0.20;0.20;;;;;;;35.94;9.87;98399.81;5043899;28;20160;-82
2021/05/09 10:03:47;;;;;;;0.10;0.10;;;;;;;34.38;9.52;98396.50;5029017;28;20122;-82
2021/05/09 10:06:14;;;;;;;0.28;0.20;;;;;;;35.12;10.50;98394.88;5049048;28;20067;-83
2021/05/09 10:08:40;;;;;;;0.77;0.10;;;;;;;35.89;10.68;98403.41;5045972;28;20025;-83
2021/05/09 10:11:07;;;;;;;0.10;0.10;;;;;;;36.30;9.37;98404.75;5059808;28;20025;-83
2021/05/09 10:13:34;;;;;;;0.17;0.17;;;;;;;35.22;10.39;98394.19;5054755;28;20025;-83
2021/05/09 10:16:01;;;;;;;0.17;0.17;;;;;;;34.99;10.93;98386.66;5050548;28;20509;-85
2021/05/09 10:18:28;;;;;;;0.20;0.20;;;;;;;35.24;9.86;98383.06;5051309;28;20140;-85
2021/05/09 10:20:55;;;;;;;0.10;0.10;;;;;;;35.32;9.77;98381.31;5052538;28;20033;-85
2021/05/09 10:23:22;;;;;;;0.95;0.20;;;;;;;35.24;10.14;98379.44;5048045;28;20076;-85
2021/05/09 10:25:54;;;;;;;0.20;0.10;;;;;;;34.96;10.79;98387.66;5044416;28;20124;-84
2021/05/09 10:28:26;;;;;;;0.10;0.10;;;;;;;33.92;11.04;98390.59;5052131;28;20036;-84
2021/05/09 10:30:55;;;;;;;0.38;0.17;;;;;;;34.69;10.38;98388.91;5051013;28;20108;-84
2021/05/09 10:33:40;;;;;;;0.10;0.10;;;;;;;35.36;11.73;98383.94;5051001;28;20406;-85
2021/05/09 10:36:08;;;;;;;0.13;0.13;;;;;;;35.31;9.79;98371.19;5048507;28;20143;-84
2021/05/09 10:39:10;;;;;;;0.10;0.10;;;;;;;35.80;10.96;98378.63;5031296;28;20682;-86
2021/05/09 10:41:58;;;;;;;0.10;0.10;;;;;;;35.67;9.76;98369.72;5034683;28;20147;-84
2021/05/09 10:44:41;;;;;;;0.10;0.10;;;;;;;34.99;12.29;98363.81;5049144;28;20040;-84
2021/05/09 10:47:33;;;;;;;0.10;0.10;;;;;;;35.53;10.69;98367.00;5030276;28;20045;-83
2021/05/09 10:50:14;;;;;;;0.17;0.15;;;;;;;35.85;9.46;98369.34;5043435;28;20087;-83
2021/05/09 10:52:46;;;;;;;0.10;0.10;;;;;;;35.85;9.69;98363.63;5042642;28;20560;-83
2021/05/09 10:55:45;;;;;;;0.10;0.10;;;;;;;34.32;10.12;98347.94;5047569;28;20029;-83
2021/05/09 10:58:17;;;;;;;0.30;0.15;;;;;;;34.88;11.43;98351.50;5038432;28;20033;-84
2021/05/09 11:00:58;;;;;;;0.30;0.10;;;;;;;35.59;10.13;98340.06;5043622;28;20033;-81
2021/05/09 11:03:40;;;;;;;0.08;0.08;;;;;;;36.35;9.79;98343.94;5040400;28;20040;-81
2021/05/09 11:06:10;;;;;;;0.10;0.10;;;;;;;36.12;12.45;98347.97;5040240;28;20474;-81
2021/05/09 11:08:43;;;;;;;0.15;0.15;;;;;;;36.85;10.43;98352.78;5046789;28;20592;-82
2021/05/09 11:11:12;;;;;;;0.10;0.10;;;;;;;37.11;10.25;98341.91;5050521;28;20508;-83
2021/05/09 11:14:01;;;;;;;0.00;0.00;;;;;;;37.20;9.13;98350.25;5050393;28;20567;-84
2021/05/09 11:16:30;;;;;;;0.10;0.00;;;;;;;36.58;9.94;98350.56;5051466;28;20098;-84
2021/05/09 11:19:01;;;;;;;0.10;0.10;;;;;;;35.68;9.96;98345.59;5047269;28;20393;-85
2021/05/09 11:21:29;;;;;;;;;;;;;;;35.94;9.26;98339.78;5039295;28;20037;-84
2021/05/09 11:23:56;;;;;;;0.20;0.10;;;;;;;36.92;10.49;98343.72;5040437;28;19924;-84
2021/05/09 11:26:28;;;;;;;0.30;0.10;;;;;;;37.29;9.35;98340.66;5042564;28;20390;-84
2021/05/09 11:29:10;;;;;;;0.22;0.20;;;;;;;37.55;8.29;98332.63;5045033;28;20025;-86
2021/05/09 11:31:44;;;;;;;0.00;0.00;;;;;;;37.03;10.78;98334.34;5043132;28;20079;-89
2021/05/09 11:34:10;;;;;;;0.10;0.10;;;;;;;36.93;8.56;98342.41;5039340;28;20101;-89
2021/05/09 11:36:38;;;;;;;0.20;0.10;;;;;;;36.47;9.04;98337.00;5044782;28;20053;-87
2021/05/09 11:39:09;;;;;;;0.08;0.00;;;;;;;36.23;9.17;98338.66;5044843;28;20112;-87
2021/05/09 11:42:08;;;;;;;0.10;0.10;;;;;;;36.72;9.82;98338.94;5053693;28;20044;-87